Bainbridge Island, WA (98110)

7:07 PM PDT on March 27, 2017 (GMT -0700)
| | Change Station
Active Advisory: Special Statement

Elev -9999 ft 0.00 °N, 0.00 °E | Updated 3 minutes ago

Overcast
Overcast
°F
Feels Like °F
N
Wind Variable Wind from North
Gusts mph

Today
High -- | Low -- °F
--% Chance of Precip.
Yesterday
High -- | Low -- °F
Precip. -- in
Pressure 30.19 in
Visibility 10.0 miles
Clouds Overcast 11000 ft
Dew Point Not available.
Humidity Not available.
Rainfall --
Snow Depth Not available.
6:58 AM 7:33 PM
Waning Crescent, 0% visible
METAR KBFI 280153Z 20006G18KT 10SM OVC110 10/00 A3019 RMK AO2 SLP223 T01000000
Pressure 30.19 in
Visibility 10.0 miles
Clouds Overcast 11000 ft
Dew Point Not available.
Humidity Not available.
Rainfall --
Snow Depth Not available.
6:58 AM 7:33 PM
Waning Crescent, 0% visible
METAR KBFI 280153Z 20006G18KT 10SM OVC110 10/00 A3019 RMK AO2 SLP223 T01000000

Get Your Daily Forecast Email!

Thanks for signing up!

Be on the lookout for a verification email in your inbox.

You'll start receiving severe weather alerts in your inbox..

×

10-Day Weather Forecast

Almanac

Astronomy

Mar. 27, 2017 Rise Set
Actual Time
Civil Twilight
Nautical Twilight
Astronomical Twilight
Moon
Length of Visible Light
Length of Day
Tomorrow will be .
, % of the Moon is Illuminated

Today's Extremes

State Highs State Lows

Community

WunderPhotos

Upload Photos

1,962,540 photos uploaded!

WunderBlog® & News

Nearby

Air Quality

  Air Quality AQ Index Pollutant
Not available.

Snow Depth

Station Depth Elevation

Earthquake Activity

City Distance Mag. Time & Date
Minimum magnitude displayed is 2.5.

Earthquake Activity

City Distance Mag. Time & Date
Minimum magnitude displayed is 2.5.

Coastal Water Temperatures

Place Temperature

Stations

Nearby Weather Stations

Station Location Temp. Windchill Dew Point Humidity Wind Precip. Elev Updated Type
                   

Watches & Warnings

Special Statement
Issued: 4:10 PM PDT Mar. 27, 2017 – National Weather Service

... Rain will cause a further increased threat of landslides
Tuesday and Wednesday...

Soils remain saturated or nearly saturated over much of western
Washington. While the landslide risk remains elevated, the threat
will be even higher Tuesday and Wednesday with additional
rainfall expected. Some lowlands not shadowed by the Olympics
could see around 1 inch of rain, with locally higher amounts, from
Tuesday morning through Wednesday morning. This includes the
interior lowlands from around Everett southward, including all of greater
Puget Sound, east lowlands, southwest interior and the coast.

For more information about current conditions, visit
www.Weather.Gov/Seattle, select hydrology, and then scroll down
for the links to the landslide information pages.

For more information on landslides, visit
www.Dnr.WA.Gov/programs-and-services/geology/geologic-hazards/
landslides.


Www.Weather.Gov/Seattle
Mercer